sensor_id;sensor_type;location;lat;lon;timestamp;pressure;altitude;pressure_sealevel;temperature;humidity
48968;BME280;46511;53.148;8.204;2023-07-31T00:02:20;100815.91;;;18.52;100.00
48968;BME280;46511;53.148;8.204;2023-07-31T00:04:51;100818.72;;;18.41;100.00
48968;BME280;46511;53.148;8.204;2023-07-31T00:07:23;100818.84;;;18.80;100.00
48968;BME280;46511;53.148;8.204;2023-07-31T00:09:54;100808.94;;;18.80;100.00
48968;BME280;46511;53.148;8.204;2023-07-31T00:12:27;100811.63;;;18.71;100.00
48968;BME280;46511;53.148;8.204;2023-07-31T00:14:58;100808.56;;;18.54;100.00
48968;BME280;46511;53.148;8.204;2023-07-31T00:17:30;100798.84;;;18.23;100.00
48968;BME280;46511;53.148;8.204;2023-07-31T00:20:01;100803.47;;;18.51;100.00
48968;BME280;46511;53.148;8.204;2023-07-31T00:22:33;100809.69;;;18.12;100.00
48968;BME280;46511;53.148;8.204;2023-07-31T00:25:04;100801.88;;;18.09;100.00
48968;BME280;46511;53.148;8.204;2023-07-31T00:27:37;100793.16;;;18.16;100.00
48968;BME280;46511;53.148;8.204;2023-07-31T00:30:08;100798.38;;;18.18;100.00
48968;BME280;46511;53.148;8.204;2023-07-31T00:32:40;100806.91;;;17.92;100.00
48968;BME280;46511;53.148;8.204;2023-07-31T00:35:11;100798.56;;;17.95;100.00
48968;BME280;46511;53.148;8.204;2023-07-31T00:37:42;100797.88;;;17.93;100.00
48968;BME280;46511;53.148;8.204;2023-07-31T00:40:14;100781.09;;;17.80;100.00
48968;BME280;46511;53.148;8.204;2023-07-31T00:42:45;100783.72;;;17.91;100.00
48968;BME280;46511;53.148;8.204;2023-07-31T00:45:16;100780.50;;;18.07;100.00
48968;BME280;46511;53.148;8.204;2023-07-31T00:47:48;100780.56;;;18.17;100.00
48968;BME280;46511;53.148;8.204;2023-07-31T00:50:19;100776.13;;;18.46;100.00
48968;BME280;46511;53.148;8.204;2023-07-31T00:52:51;100777.97;;;18.55;100.00
48968;BME280;46511;53.148;8.204;2023-07-31T00:55:23;100785.47;;;18.42;100.00
48968;BME280;46511;53.148;8.204;2023-07-31T00:57:54;100783.56;;;18.23;100.00
48968;BME280;46511;53.148;8.204;2023-07-31T01:00:26;100786.38;;;18.22;100.00
48968;BME280;46511;53.148;8.204;2023-07-31T01:02:58;100792.47;;;18.24;100.00
48968;BME280;46511;53.148;8.204;2023-07-31T01:08:21;100783.94;;;18.49;100.00
48968;BME280;46511;53.148;8.204;2023-07-31T01:11:04;100786.59;;;18.09;100.00
48968;BME280;46511;53.148;8.204;2023-07-31T01:13:39;100785.81;;;18.28;100.00
48968;BME280;46511;53.148;8.204;2023-07-31T01:16:10;100784.13;;;18.27;100.00
48968;BME280;46511;53.148;8.204;2023-07-31T01:18:36;100780.16;;;18.21;100.00
48968;BME280;46511;53.148;8.204;2023-07-31T01:21:21;100777.97;;;18.06;100.00
48968;BME280;46511;53.148;8.204;2023-07-31T01:26:56;100785.22;;;18.15;100.00
48968;BME280;46511;53.148;8.204;2023-07-31T01:29:32;100790.31;;;18.18;100.00
48968;BME280;46511;53.148;8.204;2023-07-31T01:32:08;100781.41;;;17.66;100.00
48968;BME280;46511;53.148;8.204;2023-07-31T01:34:40;100783.44;;;17.53;100.00
48968;BME280;46511;53.148;8.204;2023-07-31T01:37:12;100780.19;;;17.49;100.00
48968;BME280;46511;53.148;8.204;2023-07-31T01:39:44;100772.97;;;17.70;100.00
48968;BME280;46511;53.148;8.204;2023-07-31T01:42:15;100771.66;;;17.23;100.00
48968;BME280;46511;53.148;8.204;2023-07-31T01:44:46;100764.44;;;17.03;100.00
48968;BME280;46511;53.148;8.204;2023-07-31T01:47:18;100766.88;;;17.06;100.00
48968;BME280;46511;53.148;8.204;2023-07-31T01:49:49;100764.53;;;16.80;100.00
48968;BME280;46511;53.148;8.204;2023-07-31T01:52:21;100760.47;;;16.86;100.00
48968;BME280;46511;53.148;8.204;2023-07-31T01:54:52;100757.94;;;17.05;100.00
48968;BME280;46511;53.148;8.204;2023-07-31T01:57:23;100756.72;;;16.66;100.00
48968;BME280;46511;53.148;8.204;2023-07-31T01:59:55;100753.81;;;16.80;100.00
48968;BME280;46511;53.148;8.204;2023-07-31T02:02:26;100749.63;;;16.88;100.00
48968;BME280;46511;53.148;8.204;2023-07-31T02:04:57;100750.41;;;16.56;100.00
48968;BME280;46511;53.148;8.204;2023-07-31T02:07:28;100753.53;;;16.83;100.00
48968;BME280;46511;53.148;8.204;2023-07-31T02:10:00;100748.38;;;16.92;100.00
48968;BME280;46511;53.148;8.204;2023-07-31T02:12:31;100750.00;;;16.83;100.00
48968;BME280;46511;53.148;8.204;2023-07-31T02:15:04;100746.53;;;16.60;100.00
48968;BME280;46511;53.148;8.204;2023-07-31T02:17:36;100755.03;;;16.76;100.00
48968;BME280;46511;53.148;8.204;2023-07-31T02:20:07;100771.25;;;16.75;100.00
48968;BME280;46511;53.148;8.204;2023-07-31T02:22:39;100762.84;;;16.79;100.00
48968;BME280;46511;53.148;8.204;2023-07-31T02:25:12;100769.69;;;16.72;100.00
48968;BME280;46511;53.148;8.204;2023-07-31T02:27:44;100746.19;;;16.85;100.00
48968;BME280;46511;53.148;8.204;2023-07-31T02:30:15;100747.41;;;16.93;100.00
48968;BME280;46511;53.148;8.204;2023-07-31T02:32:47;100752.09;;;16.79;100.00
48968;BME280;46511;53.148;8.204;2023-07-31T02:35:18;100741.69;;;16.86;100.00
48968;BME280;46511;53.148;8.204;2023-07-31T02:37:49;100748.50;;;16.47;100.00
48968;BME280;46511;53.148;8.204;2023-07-31T02:40:16;100746.81;;;16.35;100.00
48968;BME280;46511;53.148;8.204;2023-07-31T02:42:42;100742.97;;;16.71;100.00
48968;BME280;46511;53.148;8.204;2023-07-31T02:45:09;100736.78;;;16.59;100.00
48968;BME280;46511;53.148;8.204;2023-07-31T02:47:40;100737.03;;;16.45;100.00
48968;BME280;46511;53.148;8.204;2023-07-31T02:50:11;100750.94;;;16.39;100.00
48968;BME280;46511;53.148;8.204;2023-07-31T02:52:43;100732.38;;;16.58;100.00
48968;BME280;46511;53.148;8.204;2023-07-31T02:55:17;100735.06;;;16.69;100.00
48968;BME280;46511;53.148;8.204;2023-07-31T02:57:43;100739.59;;;16.46;100.00
48968;BME280;46511;53.148;8.204;2023-07-31T03:00:15;100738.47;;;16.60;100.00
48968;BME280;46511;53.148;8.204;2023-07-31T03:02:46;100747.97;;;16.64;100.00
48968;BME280;46511;53.148;8.204;2023-07-31T03:05:12;100744.28;;;16.65;100.00
48968;BME280;46511;53.148;8.204;2023-07-31T03:07:44;100734.50;;;16.43;100.00
48968;BME280;46511;53.148;8.204;2023-07-31T03:10:10;100728.28;;;16.43;100.00
48968;BME280;46511;53.148;8.204;2023-07-31T03:12:37;100731.09;;;16.41;100.00
48968;BME280;46511;53.148;8.204;2023-07-31T03:15:03;100734.84;;;16.39;100.00
48968;BME280;46511;53.148;8.204;2023-07-31T03:17:35;100729.53;;;16.27;100.00
48968;BME280;46511;53.148;8.204;2023-07-31T03:20:06;100729.97;;;16.44;100.00
48968;BME280;46511;53.148;8.204;2023-07-31T03:22:34;100732.38;;;16.58;100.00
48968;BME280;46511;53.148;8.204;2023-07-31T03:25:01;100728.50;;;16.51;100.00
48968;BME280;46511;53.148;8.204;2023-07-31T03:27:31;100728.41;;;16.41;100.00
48968;BME280;46511;53.148;8.204;2023-07-31T03:29:58;100726.81;;;16.50;100.00
48968;BME280;46511;53.148;8.204;2023-07-31T03:32:30;100731.94;;;16.42;100.00
48968;BME280;46511;53.148;8.204;2023-07-31T03:35:01;100729.28;;;16.31;100.00
48968;BME280;46511;53.148;8.204;2023-07-31T03:37:28;100731.94;;;16.42;100.00
48968;BME280;46511;53.148;8.204;2023-07-31T03:40:00;100728.78;;;16.37;100.00
48968;BME280;46511;53.148;8.204;2023-07-31T03:42:26;100723.81;;;16.32;100.00
48968;BME280;46511;53.148;8.204;2023-07-31T03:44:52;100723.88;;;16.53;100.00
48968;BME280;46511;53.148;8.204;2023-07-31T03:47:19;100716.09;;;16.50;100.00
48968;BME280;46511;53.148;8.204;2023-07-31T03:49:45;100719.44;;;16.31;100.00
48968;BME280;46511;53.148;8.204;2023-07-31T03:52:12;100710.50;;;16.42;100.00
48968;BME280;46511;53.148;8.204;2023-07-31T03:54:43;100707.78;;;16.53;100.00
48968;BME280;46511;53.148;8.204;2023-07-31T03:57:10;100711.94;;;16.46;100.00
48968;BME280;46511;53.148;8.204;2023-07-31T03:59:42;100705.38;;;16.39;100.00
48968;BME280;46511;53.148;8.204;2023-07-31T04:02:08;100702.72;;;16.27;100.00
48968;BME280;46511;53.148;8.204;2023-07-31T04:04:35;100698.22;;;16.28;100.00
48968;BME280;46511;53.148;8.204;2023-07-31T04:07:01;100701.97;;;16.37;100.00
48968;BME280;46511;53.148;8.204;2023-07-31T04:09:28;100703.66;;;16.49;100.00
48968;BME280;46511;53.148;8.204;2023-07-31T04:11:54;100705.84;;;16.44;100.00
48968;BME280;46511;53.148;8.204;2023-07-31T04:14:21;100697.31;;;16.50;100.00
48968;BME280;46511;53.148;8.204;2023-07-31T04:16:52;100698.03;;;16.52;100.00
48968;BME280;46511;53.148;8.204;2023-07-31T04:19:18;100693.13;;;16.57;100.00
48968;BME280;46511;53.148;8.204;2023-07-31T04:21:45;100695.75;;;16.36;100.00
48968;BME280;46511;53.148;8.204;2023-07-31T04:24:11;100685.84;;;16.48;100.00
48968;BME280;46511;53.148;8.204;2023-07-31T04:26:37;100688.97;;;16.64;100.00
48968;BME280;46511;53.148;8.204;2023-07-31T04:29:04;100687.44;;;16.50;100.00
48968;BME280;46511;53.148;8.204;2023-07-31T04:31:30;100690.19;;;16.71;100.00
48968;BME280;46511;53.148;8.204;2023-07-31T04:33:56;100688.69;;;16.67;100.00
48968;BME280;46511;53.148;8.204;2023-07-31T04:36:23;100694.88;;;16.47;100.00
48968;BME280;46511;53.148;8.204;2023-07-31T04:38:49;100693.19;;;16.35;100.00
48968;BME280;46511;53.148;8.204;2023-07-31T04:41:16;100689.34;;;16.60;100.00
48968;BME280;46511;53.148;8.204;2023-07-31T04:43:47;100690.44;;;16.57;100.00
48968;BME280;46511;53.148;8.204;2023-07-31T04:46:15;100686.78;;;16.69;100.00
48968;BME280;46511;53.148;8.204;2023-07-31T04:48:42;100692.47;;;16.76;100.00
48968;BME280;46511;53.148;8.204;2023-07-31T04:51:09;100682.31;;;16.47;100.00
48968;BME280;46511;53.148;8.204;2023-07-31T04:53:36;100677.03;;;16.57;100.00
48968;BME280;46511;53.148;8.204;2023-07-31T04:56:02;100684.72;;;16.62;100.00
48968;BME280;46511;53.148;8.204;2023-07-31T04:58:29;100684.56;;;16.63;100.00
48968;BME280;46511;53.148;8.204;2023-07-31T05:00:55;100686.06;;;16.56;100.00
48968;BME280;46511;53.148;8.204;2023-07-31T05:03:22;100689.91;;;16.74;100.00
48968;BME280;46511;53.148;8.204;2023-07-31T05:05:49;100673.09;;;16.72;100.00
48968;BME280;46511;53.148;8.204;2023-07-31T05:08:16;100673.91;;;16.52;100.00
48968;BME280;46511;53.148;8.204;2023-07-31T05:10:43;100675.88;;;16.50;100.00
48968;BME280;46511;53.148;8.204;2023-07-31T05:13:10;100670.06;;;16.66;100.00
48968;BME280;46511;53.148;8.204;2023-07-31T05:15:36;100667.28;;;16.56;100.00
48968;BME280;46511;53.148;8.204;2023-07-31T05:18:03;100668.81;;;16.81;100.00
48968;BME280;46511;53.148;8.204;2023-07-31T05:20:34;100672.13;;;16.73;100.00
48968;BME280;46511;53.148;8.204;2023-07-31T05:23:00;100665.72;;;16.85;100.00
48968;BME280;46511;53.148;8.204;2023-07-31T05:25:27;100664.94;;;16.74;100.00
48968;BME280;46511;53.148;8.204;2023-07-31T05:27:53;100664.56;;;16.67;100.00
48968;BME280;46511;53.148;8.204;2023-07-31T05:30:24;100660.63;;;16.82;100.00
48968;BME280;46511;53.148;8.204;2023-07-31T05:32:51;100659.56;;;16.95;100.00
48968;BME280;46511;53.148;8.204;2023-07-31T05:35:17;100656.44;;;16.90;100.00
48968;BME280;46511;53.148;8.204;2023-07-31T05:37:44;100652.50;;;16.94;100.00
48968;BME280;46511;53.148;8.204;2023-07-31T05:40:10;100656.88;;;16.74;100.00
48968;BME280;46511;53.148;8.204;2023-07-31T05:42:42;100654.50;;;16.60;100.00
48968;BME280;46511;53.148;8.204;2023-07-31T05:45:08;100654.75;;;16.89;100.00
48968;BME280;46511;53.148;8.204;2023-07-31T05:47:38;100655.53;;;16.79;100.00
48968;BME280;46511;53.148;8.204;2023-07-31T05:50:04;100653.22;;;16.96;100.00
48968;BME280;46511;53.148;8.204;2023-07-31T05:52:31;100649.19;;;16.80;100.00
48968;BME280;46511;53.148;8.204;2023-07-31T05:54:57;100646.53;;;17.11;100.00
48968;BME280;46511;53.148;8.204;2023-07-31T05:57:24;100640.84;;;17.25;100.00
48968;BME280;46511;53.148;8.204;2023-07-31T05:59:50;100631.25;;;17.63;100.00
48968;BME280;46511;53.148;8.204;2023-07-31T06:02:16;100624.50;;;17.38;100.00
48968;BME280;46511;53.148;8.204;2023-07-31T06:04:43;100623.19;;;17.32;100.00
48968;BME280;46511;53.148;8.204;2023-07-31T06:07:09;100621.19;;;17.55;100.00
48968;BME280;46511;53.148;8.204;2023-07-31T06:09:36;100622.22;;;17.64;100.00
48968;BME280;46511;53.148;8.204;2023-07-31T06:12:08;100616.84;;;17.64;100.00
48968;BME280;46511;53.148;8.204;2023-07-31T06:14:39;100618.28;;;17.37;100.00
48968;BME280;46511;53.148;8.204;2023-07-31T06:17:06;100616.16;;;17.41;100.00
48968;BME280;46511;53.148;8.204;2023-07-31T06:19:32;100615.16;;;17.63;100.00
48968;BME280;46511;53.148;8.204;2023-07-31T06:21:58;100610.81;;;17.81;100.00
48968;BME280;46511;53.148;8.204;2023-07-31T06:24:25;100618.78;;;17.92;100.00
48968;BME280;46511;53.148;8.204;2023-07-31T06:26:56;100601.78;;;17.73;100.00
48968;BME280;46511;53.148;8.204;2023-07-31T06:29:23;100611.38;;;17.75;100.00
48968;BME280;46511;53.148;8.204;2023-07-31T06:31:49;100607.72;;;17.76;100.00
48968;BME280;46511;53.148;8.204;2023-07-31T06:34:16;100604.59;;;17.81;100.00
48968;BME280;46511;53.148;8.204;2023-07-31T06:36:43;100606.06;;;18.04;100.00
48968;BME280;46511;53.148;8.204;2023-07-31T06:39:09;100609.75;;;18.03;100.00
48968;BME280;46511;53.148;8.204;2023-07-31T06:41:41;100604.94;;;17.97;100.00
48968;BME280;46511;53.148;8.204;2023-07-31T06:44:08;100602.88;;;17.70;100.00
48968;BME280;46511;53.148;8.204;2023-07-31T06:46:35;100598.94;;;17.74;100.00
48968;BME280;46511;53.148;8.204;2023-07-31T06:49:07;100601.81;;;17.92;100.00
48968;BME280;46511;53.148;8.204;2023-07-31T06:51:38;100605.63;;;17.99;100.00
48968;BME280;46511;53.148;8.204;2023-07-31T06:54:05;100591.09;;;18.02;100.00
48968;BME280;46511;53.148;8.204;2023-07-31T06:56:36;100599.00;;;18.03;100.00
48968;BME280;46511;53.148;8.204;2023-07-31T06:59:03;100591.91;;;17.92;100.00
48968;BME280;46511;53.148;8.204;2023-07-31T07:01:34;100592.75;;;17.83;100.00
48968;BME280;46511;53.148;8.204;2023-07-31T07:04:00;100593.44;;;17.85;100.00
48968;BME280;46511;53.148;8.204;2023-07-31T07:06:27;100584.69;;;17.83;100.00
48968;BME280;46511;53.148;8.204;2023-07-31T07:08:53;100587.78;;;17.88;100.00
48968;BME280;46511;53.148;8.204;2023-07-31T07:11:20;100576.50;;;17.94;100.00
48968;BME280;46511;53.148;8.204;2023-07-31T07:13:46;100578.31;;;17.84;100.00
48968;BME280;46511;53.148;8.204;2023-07-31T07:16:12;100578.34;;;17.94;100.00
48968;BME280;46511;53.148;8.204;2023-07-31T07:18:39;100576.06;;;18.09;100.00
48968;BME280;46511;53.148;8.204;2023-07-31T07:21:05;100576.81;;;18.30;100.00
48968;BME280;46511;53.148;8.204;2023-07-31T07:23:31;100568.31;;;18.15;100.00
48968;BME280;46511;53.148;8.204;2023-07-31T07:25:58;100576.03;;;17.89;100.00
48968;BME280;46511;53.148;8.204;2023-07-31T07:28:24;100569.00;;;18.08;100.00
48968;BME280;46511;53.148;8.204;2023-07-31T07:30:51;100564.75;;;18.15;100.00
48968;BME280;46511;53.148;8.204;2023-07-31T07:33:19;100567.28;;;18.55;100.00
48968;BME280;46511;53.148;8.204;2023-07-31T07:35:46;100565.19;;;18.39;100.00
48968;BME280;46511;53.148;8.204;2023-07-31T07:38:13;100566.88;;;18.50;100.00
48968;BME280;46511;53.148;8.204;2023-07-31T07:40:41;100571.56;;;18.38;100.00
48968;BME280;46511;53.148;8.204;2023-07-31T07:43:08;100570.44;;;18.31;100.00
48968;BME280;46511;53.148;8.204;2023-07-31T07:45:34;100557.09;;;18.59;100.00
48968;BME280;46511;53.148;8.204;2023-07-31T07:48:00;100561.34;;;18.51;100.00
48968;BME280;46511;53.148;8.204;2023-07-31T07:50:27;100562.22;;;18.52;100.00
48968;BME280;46511;53.148;8.204;2023-07-31T07:52:53;100571.13;;;18.43;100.00
48968;BME280;46511;53.148;8.204;2023-07-31T07:55:19;100559.22;;;18.45;100.00
48968;BME280;46511;53.148;8.204;2023-07-31T07:57:46;100583.72;;;18.52;100.00
48968;BME280;46511;53.148;8.204;2023-07-31T08:00:17;100560.81;;;18.48;100.00
48968;BME280;46511;53.148;8.204;2023-07-31T08:02:49;100560.03;;;18.84;100.00
48968;BME280;46511;53.148;8.204;2023-07-31T08:05:20;100547.78;;;19.09;100.00
48968;BME280;46511;53.148;8.204;2023-07-31T08:07:46;100559.63;;;18.89;100.00
48968;BME280;46511;53.148;8.204;2023-07-31T08:10:18;100545.44;;;18.97;100.00
48968;BME280;46511;53.148;8.204;2023-07-31T08:12:44;100532.81;;;18.97;100.00
48968;BME280;46511;53.148;8.204;2023-07-31T08:15:11;100528.81;;;19.01;100.00
48968;BME280;46511;53.148;8.204;2023-07-31T08:17:37;100518.28;;;19.18;100.00
48968;BME280;46511;53.148;8.204;2023-07-31T08:20:08;100525.28;;;19.01;100.00
48968;BME280;46511;53.148;8.204;2023-07-31T08:22:40;100518.72;;;19.13;100.00
48968;BME280;46511;53.148;8.204;2023-07-31T08:25:07;100515.19;;;19.40;100.00
48968;BME280;46511;53.148;8.204;2023-07-31T08:27:38;100515.19;;;19.12;100.00
48968;BME280;46511;53.148;8.204;2023-07-31T08:30:14;100519.94;;;18.91;100.00
48968;BME280;46511;53.148;8.204;2023-07-31T08:32:40;100516.09;;;18.94;100.00
48968;BME280;46511;53.148;8.204;2023-07-31T08:35:11;100512.63;;;18.74;100.00
48968;BME280;46511;53.148;8.204;2023-07-31T08:37:38;100510.06;;;18.82;100.00
48968;BME280;46511;53.148;8.204;2023-07-31T08:40:06;100500.97;;;18.83;100.00
48968;BME280;46511;53.148;8.204;2023-07-31T08:42:33;100496.41;;;18.93;100.00
48968;BME280;46511;53.148;8.204;2023-07-31T08:45:04;100507.00;;;19.32;100.00
48968;BME280;46511;53.148;8.204;2023-07-31T08:47:36;100496.13;;;18.96;100.00
48968;BME280;46511;53.148;8.204;2023-07-31T08:50:08;100508.25;;;19.37;100.00
48968;BME280;46511;53.148;8.204;2023-07-31T08:52:41;100516.06;;;19.03;100.00
48968;BME280;46511;53.148;8.204;2023-07-31T08:55:15;100502.91;;;19.00;100.00
48968;BME280;46511;53.148;8.204;2023-07-31T08:57:47;100503.91;;;18.99;100.00
48968;BME280;46511;53.148;8.204;2023-07-31T09:00:19;100506.09;;;18.86;100.00
48968;BME280;46511;53.148;8.204;2023-07-31T09:03:35;100520.16;;;18.61;100.00
48968;BME280;46511;53.148;8.204;2023-07-31T09:05:44;100509.97;;;19.01;100.00
48968;BME280;46511;53.148;8.204;2023-07-31T09:08:13;100510.34;;;18.79;100.00
48968;BME280;46511;53.148;8.204;2023-07-31T09:10:41;100509.72;;;18.95;100.00
48968;BME280;46511;53.148;8.204;2023-07-31T09:13:09;100510.41;;;19.06;100.00
48968;BME280;46511;53.148;8.204;2023-07-31T09:15:36;100506.78;;;18.88;100.00
48968;BME280;46511;53.148;8.204;2023-07-31T09:18:08;100500.38;;;18.99;100.00
48968;BME280;46511;53.148;8.204;2023-07-31T09:20:40;100503.84;;;18.62;100.00
48968;BME280;46511;53.148;8.204;2023-07-31T09:23:12;100487.72;;;19.09;100.00
48968;BME280;46511;53.148;8.204;2023-07-31T09:25:41;100485.81;;;19.19;100.00
48968;BME280;46511;53.148;8.204;2023-07-31T09:28:15;100485.59;;;19.03;100.00
48968;BME280;46511;53.148;8.204;2023-07-31T09:30:50;100475.88;;;19.20;100.00
48968;BME280;46511;53.148;8.204;2023-07-31T09:33:22;100484.66;;;19.22;100.00
48968;BME280;46511;53.148;8.204;2023-07-31T09:35:54;100477.25;;;19.51;100.00
48968;BME280;46511;53.148;8.204;2023-07-31T09:38:20;100471.06;;;19.68;100.00
48968;BME280;46511;53.148;8.204;2023-07-31T09:40:51;100463.56;;;19.45;100.00
48968;BME280;46511;53.148;8.204;2023-07-31T09:43:23;100453.69;;;19.35;100.00
48968;BME280;46511;53.148;8.204;2023-07-31T09:45:55;100458.25;;;19.35;100.00
48968;BME280;46511;53.148;8.204;2023-07-31T09:48:25;100459.25;;;19.52;100.00
48968;BME280;46511;53.148;8.204;2023-07-31T09:50:59;100447.16;;;19.38;100.00
48968;BME280;46511;53.148;8.204;2023-07-31T09:53:31;100444.63;;;19.36;100.00
48968;BME280;46511;53.148;8.204;2023-07-31T09:56:02;100444.19;;;19.59;100.00
48968;BME280;46511;53.148;8.204;2023-07-31T09:58:29;100436.28;;;19.57;100.00
48968;BME280;46511;53.148;8.204;2023-07-31T10:01:00;100437.34;;;19.64;100.00
48968;BME280;46511;53.148;8.204;2023-07-31T10:03:33;100433.13;;;19.17;100.00
48968;BME280;46511;53.148;8.204;2023-07-31T10:06:05;100436.44;;;19.28;100.00
48968;BME280;46511;53.148;8.204;2023-07-31T10:08:35;100431.75;;;19.48;100.00
48968;BME280;46511;53.148;8.204;2023-07-31T10:11:08;100431.13;;;19.64;100.00
48968;BME280;46511;53.148;8.204;2023-07-31T10:13:35;100435.72;;;19.54;100.00
48968;BME280;46511;53.148;8.204;2023-07-31T10:16:08;100437.88;;;19.23;100.00
48968;BME280;46511;53.148;8.204;2023-07-31T10:18:40;100439.28;;;19.72;100.00
48968;BME280;46511;53.148;8.204;2023-07-31T10:21:12;100442.94;;;20.07;100.00
48968;BME280;46511;53.148;8.204;2023-07-31T10:23:45;100424.09;;;19.53;100.00
48968;BME280;46511;53.148;8.204;2023-07-31T10:26:18;100424.41;;;19.86;100.00
48968;BME280;46511;53.148;8.204;2023-07-31T10:28:50;100418.00;;;20.31;100.00
48968;BME280;46511;53.148;8.204;2023-07-31T10:31:24;100423.06;;;20.08;100.00
48968;BME280;46511;53.148;8.204;2023-07-31T10:33:51;100409.75;;;20.06;100.00
48968;BME280;46511;53.148;8.204;2023-07-31T10:36:19;100403.91;;;19.93;100.00
48968;BME280;46511;53.148;8.204;2023-07-31T10:38:51;100400.88;;;20.40;100.00
48968;BME280;46511;53.148;8.204;2023-07-31T10:41:32;100389.03;;;20.33;100.00
48968;BME280;46511;53.148;8.204;2023-07-31T10:44:03;100406.28;;;19.96;100.00
48968;BME280;46511;53.148;8.204;2023-07-31T10:46:37;100392.06;;;19.86;100.00
48968;BME280;46511;53.148;8.204;2023-07-31T10:49:08;100406.22;;;19.52;100.00
48968;BME280;46511;53.148;8.204;2023-07-31T10:51:39;100404.06;;;20.09;100.00
48968;BME280;46511;53.148;8.204;2023-07-31T10:54:12;100396.00;;;20.17;100.00
48968;BME280;46511;53.148;8.204;2023-07-31T10:56:44;100402.66;;;20.05;100.00
48968;BME280;46511;53.148;8.204;2023-07-31T10:59:17;100408.84;;;20.23;100.00
48968;BME280;46511;53.148;8.204;2023-07-31T11:01:55;100392.84;;;19.60;100.00
48968;BME280;46511;53.148;8.204;2023-07-31T11:04:34;100403.66;;;20.04;100.00
48968;BME280;46511;53.148;8.204;2023-07-31T11:07:01;100402.28;;;20.00;100.00
48968;BME280;46511;53.148;8.204;2023-07-31T11:09:33;100390.53;;;20.35;100.00
48968;BME280;46511;53.148;8.204;2023-07-31T11:12:05;100390.94;;;20.66;100.00
48968;BME280;46511;53.148;8.204;2023-07-31T11:14:37;100375.16;;;20.53;100.00
48968;BME280;46511;53.148;8.204;2023-07-31T11:17:06;100381.75;;;20.51;100.00
48968;BME280;46511;53.148;8.204;2023-07-31T11:19:38;100388.72;;;20.10;100.00
48968;BME280;46511;53.148;8.204;2023-07-31T11:22:05;100388.13;;;20.24;100.00
48968;BME280;46511;53.148;8.204;2023-07-31T11:24:37;100396.59;;;19.85;100.00
48968;BME280;46511;53.148;8.204;2023-07-31T11:27:08;100402.13;;;20.27;100.00
48968;BME280;46511;53.148;8.204;2023-07-31T11:29:35;100387.78;;;20.27;100.00
48968;BME280;46511;53.148;8.204;2023-07-31T11:32:08;100390.69;;;19.82;100.00
48968;BME280;46511;53.148;8.204;2023-07-31T11:34:54;100402.94;;;19.76;100.00
48968;BME280;46511;53.148;8.204;2023-07-31T11:37:38;100404.56;;;20.13;100.00
48968;BME280;46511;53.148;8.204;2023-07-31T11:40:10;100397.09;;;19.81;100.00
48968;BME280;46511;53.148;8.204;2023-07-31T11:42:42;100398.94;;;20.06;100.00
48968;BME280;46511;53.148;8.204;2023-07-31T11:45:13;100395.09;;;20.09;100.00
48968;BME280;46511;53.148;8.204;2023-07-31T11:47:40;100379.38;;;20.48;100.00
48968;BME280;46511;53.148;8.204;2023-07-31T11:50:11;100376.59;;;20.74;100.00
48968;BME280;46511;53.148;8.204;2023-07-31T11:52:44;100373.34;;;20.62;100.00
48968;BME280;46511;53.148;8.204;2023-07-31T11:55:14;100363.88;;;20.50;100.00
48968;BME280;46511;53.148;8.204;2023-07-31T11:57:42;100379.75;;;20.61;100.00
48968;BME280;46511;53.148;8.204;2023-07-31T12:00:15;100372.50;;;20.62;100.00
48968;BME280;46511;53.148;8.204;2023-07-31T12:02:47;100383.06;;;20.21;100.00
48968;BME280;46511;53.148;8.204;2023-07-31T12:05:19;100362.38;;;20.30;100.00
48968;BME280;46511;53.148;8.204;2023-07-31T12:07:54;100371.06;;;20.75;100.00
48968;BME280;46511;53.148;8.204;2023-07-31T12:10:24;100356.25;;;20.19;100.00
48968;BME280;46511;53.148;8.204;2023-07-31T12:13:01;100362.16;;;20.23;100.00
48968;BME280;46511;53.148;8.204;2023-07-31T12:15:37;100365.97;;;20.38;100.00
48968;BME280;46511;53.148;8.204;2023-07-31T12:18:06;100372.34;;;20.63;100.00
48968;BME280;46511;53.148;8.204;2023-07-31T12:20:34;100359.91;;;20.70;100.00
48968;BME280;46511;53.148;8.204;2023-07-31T12:23:06;100347.84;;;20.99;100.00
48968;BME280;46511;53.148;8.204;2023-07-31T12:25:32;100351.00;;;21.36;100.00
48968;BME280;46511;53.148;8.204;2023-07-31T12:28:04;100335.06;;;21.17;100.00
48968;BME280;46511;53.148;8.204;2023-07-31T12:30:38;100335.97;;;20.83;100.00
48968;BME280;46511;53.148;8.204;2023-07-31T12:33:15;100333.00;;;21.03;100.00
48968;BME280;46511;53.148;8.204;2023-07-31T12:35:46;100317.06;;;20.83;100.00
48968;BME280;46511;53.148;8.204;2023-07-31T12:38:18;100331.84;;;21.22;100.00
48968;BME280;46511;53.148;8.204;2023-07-31T12:40:49;100318.41;;;21.38;100.00
48968;BME280;46511;53.148;8.204;2023-07-31T12:43:21;100310.09;;;21.31;100.00
48968;BME280;46511;53.148;8.204;2023-07-31T12:45:54;100312.81;;;21.72;100.00
48968;BME280;46511;53.148;8.204;2023-07-31T12:48:22;100316.91;;;21.52;100.00
48968;BME280;46511;53.148;8.204;2023-07-31T12:50:53;100313.47;;;21.25;100.00
48968;BME280;46511;53.148;8.204;2023-07-31T12:53:24;100314.50;;;21.57;100.00
48968;BME280;46511;53.148;8.204;2023-07-31T12:55:56;100328.97;;;21.07;100.00
48968;BME280;46511;53.148;8.204;2023-07-31T12:58:27;100324.03;;;20.86;100.00
48968;BME280;46511;53.148;8.204;2023-07-31T13:00:59;100314.03;;;20.78;100.00